KLVS

Las Vegas Municipal Airport

Las Vegas, New Mexico, USA
METAR KLVS 232021Z AUTO 04004KT 2SM RA BR BKN017 BKN026 OVC032 08/08 A3028 RMK AO2 LTG DSNT NE P0005 T00830078
Observed Flight Rules
Oct-23 @ 20:21 UTC (19 minutes ago) Instrument Flight Rules
Wind Visibility Clouds Conditions
40° at 4 knots 2 miles
  • Broken at 1,700' AGL
  • Broken at 2,600' AGL
  • Overcast at 3,200' AGL
  • Rain
  • Mist
Temperatures Readings Precipitation
Current 8°C / 46°F
Dewpoint 8°C / 46°F
Humidity 100%
Altimeter 30.28" Hg
Pressure 1025 hPa
Elevation 2091
Current Rain 0.05
METAR KLVS 232021Z AUTO 04004KT 2SM RA BR BKN017 BKN026 OVC032 08/08 A3028 RMK AO2 LTG DSNT NE P0005 T00830078
Observed Flight Rules
Oct-23 @ 20:21 UTC
(19 minutes ago)
IFR
Wind Visibility
40° at 4 knots 2 miles
Clouds
  • Broken at 1,700' AGL
  • Broken at 2,600' AGL
  • Overcast at 3,200' AGL
Conditions
  • Rain
  • Mist
Temperature Dewpoint
8°C / 46°F 8°C / 46°F
Humidity Altimeter Pressure
100% 30.28" Hg 1025 hPa
Current Rain
0.05